Sunshine State — WDE4432 — position and weather

sailwx.info

Track history (hours):
 
Tides and Currents Weather Stations Pressure Air Temp Water Temp Dewpoint Dewpoint Depression Visibility Wind Speed Wind Dir Waves Ship Positions

Sunshine State

Owner: Crowley Petroleum Services, Jacksonville, FL. More information available from US FCC via Universal Licensing System and Coast Guard Vessel Documentation Center.

Last reported at 2018-Jun-25 09:34 UTC. Time now 2018-Jun-25 19:44 UTC.
Position N 28°40' W 093°38'.

Length 183 m; draft 10 m.

Type: Ship (hazmat cat A). MMSI: 367353000.

Date/timePositionNaut miles runAvg speedWind from/ knotsBaromVisibWave heightAir tempDewpointWater temp
2018-Jun-25 09:34N 28°40' W 093°38'211.8
2018-Jun-25 09:23N 28°41' W 093°40'511.7
2018-Jun-25 08:58N 28°44' W 093°44'3211.7
2018-Jun-25 06:13N 28°55' W 094°19'511.3
2018-Jun-25 05:48N 28°55' W 094°24'5 9.4
2018-Jun-25 05:15N 29°00' W 094°26'310.6
2018-Jun-25 05:00N 29°03' W 094°26'510.4
2018-Jun-25 04:30N 29°08' W 094°26'1011.9
2018-Jun-25 03:41N 29°15' W 094°34'211.7
2018-Jun-25 03:29N 29°16' W 094°36'511.1
2018-Jun-25 03:00N 29°20' W 094°40'612.6
2018-Jun-25 02:30N 29°21' W 094°47'612.6
2018-Jun-25 02:00N 29°27' W 094°51'611.9
2018-Jun-25 01:30N 29°32' W 094°54'611.2
2018-Jun-25 01:00N 29°37' W 094°57'510.1
2018-Jun-25 00:30N 29°42' W 094°59'4 7.3
2018-Jun-25 00:00N 29°44' W 095°03'3 5.5
2018-Jun-24 23:26N 29°45' W 095°06'2 0.0
2018-Jun-23 06:33N 29°44' W 095°08'0 0.0
2018-Jun-22 05:33N 29°44' W 095°08'0 0.1
2018-Jun-22 05:22N 29°44' W 095°08'0 0.9
2018-Jun-22 04:59N 29°44' W 095°08'2 4.9
2018-Jun-22 04:31N 29°45' W 095°06'3 6.8
2018-Jun-22 04:00N 29°44' W 095°02'4 8.4
2018-Jun-22 03:31N 29°41' W 094°59'5 9.8
2018-Jun-22 03:01N 29°36' W 094°57'611.8
2018-Jun-22 02:30N 29°31' W 094°53'611.4
2018-Jun-22 02:00N 29°26' W 094°50'511.0
2018-Jun-22 01:30N 29°21' W 094°47'3 5.4
2018-Jun-22 01:00N 29°21' W 094°44'0 0.0
2018-Jun-22 00:30N 29°21' W 094°44'0 0.0
2018-Jun-22 00:00N 29°21' W 094°44'0 0.0
2018-Jun-21 23:30N 29°21' W 094°44'0 0.1
2018-Jun-21 23:00N 29°21' W 094°44'0 0.0
2018-Jun-21 22:27N 29°21' W 094°44'0 0.0
2018-Jun-21 22:00N 29°21' W 094°44'0 0.2
2018-Jun-21 21:30N 29°21' W 094°44'0 0.3
2018-Jun-21 21:00N 29°21' W 094°44'0 0.1
2018-Jun-21 20:27N 29°21' W 094°44'0 0.1
2018-Jun-21 20:00N 29°21' W 094°44'0 0.0
2018-Jun-21 19:30N 29°21' W 094°44'0 0.0
2018-Jun-21 19:00N 29°21' W 094°44'0 0.0
2018-Jun-21 18:30N 29°21' W 094°44'0 0.0
2018-Jun-21 18:00N 29°21' W 094°44'0 0.0
2018-Jun-21 17:30N 29°21' W 094°44'0 0.0
2018-Jun-21 17:00N 29°21' W 094°44'0 0.1
2018-Jun-21 16:30N 29°21' W 094°44'0 0.1
2018-Jun-21 15:48N 29°21' W 094°44'0 0.0
2018-Jun-21 15:30N 29°21' W 094°44'0 0.0
2018-Jun-21 15:00N 29°21' W 094°44'0 0.2
2018-Jun-21 14:30N 29°21' W 094°44'0 0.1
2018-Jun-21 14:00N 29°21' W 094°44'0 0.0
2018-Jun-21 13:30N 29°21' W 094°44'0 0.0
2018-Jun-21 12:54N 29°21' W 094°44'0 0.0
2018-Jun-21 12:30N 29°21' W 094°44'0 0.0
2018-Jun-21 12:00N 29°21' W 094°44'0 0.0
2018-Jun-21 11:30N 29°21' W 094°44'0 0.1
2018-Jun-21 11:00N 29°21' W 094°44'0 0.0
2018-Jun-21 10:30N 29°21' W 094°44'0 0.0
2018-Jun-21 10:00N 29°21' W 094°44'0 0.0
2018-Jun-21 09:27N 29°21' W 094°44'0 0.0
2018-Jun-21 08:51N 29°21' W 094°44'0 0.2
2018-Jun-21 08:30N 29°21' W 094°44'0 0.1
2018-Jun-21 08:00N 29°21' W 094°44'0 0.1
2018-Jun-21 07:30N 29°21' W 094°44'0 0.0
2018-Jun-21 07:00N 29°21' W 094°44'0 0.0
2018-Jun-21 06:24N 29°21' W 094°44'0 0.0
2018-Jun-21 05:57N 29°21' W 094°44'0 0.0
2018-Jun-21 05:30N 29°21' W 094°44'0 0.0
2018-Jun-21 05:00N 29°21' W 094°44'0 0.0
2018-Jun-21 04:30N 29°21' W 094°44'0 0.1
2018-Jun-21 04:00N 29°21' W 094°44'2 3.6
2018-Jun-21 03:30N 29°21' W 094°42'611.9
2018-Jun-21 03:01N 29°18' W 094°36'611.8
2018-Jun-21 02:30N 29°14' W 094°31'1511.8
2018-Jun-21 01:13N 29°06' W 094°16'2318.7
2018-Jun-21 00:00N 28°54' W 093°54'34514.4 140 / 14 5.4 30.026.3
2018-Jun-20 00:00N 26°54' W 087°48'22212.3 270 / 12 10.8 30.626.9
2018-Jun-19 06:00N 25°06' W 084°12'22811.2 100 / 91012.710.8 27.223.3
2018-Jun-18 09:42N 25°26' W 080°01'312.9
2018-Jun-18 09:30N 25°29' W 080°01'612.8
2018-Jun-18 09:00N 25°35' W 080°01'612.6
2018-Jun-18 08:30N 25°41' W 080°01'612.4
2018-Jun-18 08:00N 25°48' W 080°01'612.2
2018-Jun-18 07:30N 25°54' W 080°01'611.9
2018-Jun-18 07:00N 25°60' W 080°01'611.6
2018-Jun-18 06:30N 26°05' W 080°00'611.5
2018-Jun-18 06:00N 26°11' W 079°60'7714.0
2018-Jun-18 06:00N 26°06' W 079°54'1223.9 090 / 51015.510.8 27.226.5
2018-Jun-18 05:30N 26°17' W 079°59'611.4
2018-Jun-18 05:00N 26°23' W 079°59'611.4
2018-Jun-18 04:30N 26°28' W 079°58'611.1
2018-Jun-18 03:58N 26°34' W 079°57'1211.0
2018-Jun-18 02:53N 26°46' W 079°56'411.1
2018-Jun-18 02:29N 26°50' W 079°56'511.0
2018-Jun-18 02:00N 26°56' W 079°56'510.8
2018-Jun-18 01:30N 27°01' W 079°55'510.5
2018-Jun-18 01:00N 27°06' W 079°55'158.5
2018-Jun-18 01:00N 27°06' W 079°54'   040 / 101015.210.8 30.024.0
Track history (hours):
 
Tides and Currents Weather Stations Pressure Air Temp Water Temp Dewpoint Dewpoint Depression Visibility Wind Speed Wind Dir Waves Ship Positions

Sunshine State

Owner: Crowley Petroleum Services, Jacksonville, FL. More information available from US FCC via Universal Licensing System and Coast Guard Vessel Documentation Center.

Last reported at 2018-Jun-25 09:34 UTC. Time now 2018-Jun-25 19:44 UTC.
Position N 28°40' W 093°38'.

Length 183 m; draft 10 m.

Type: Ship (hazmat cat A). MMSI: 367353000.

Date/timePositionNaut miles runAvg speedWind from/ knotsBaromVisibWave heightAir tempDewpointWater temp
2018-Jun-25 09:34N 28°40' W 093°38'211.8
2018-Jun-25 09:23N 28°41' W 093°40'511.7
2018-Jun-25 08:58N 28°44' W 093°44'3211.7
2018-Jun-25 06:13N 28°55' W 094°19'511.3
2018-Jun-25 05:48N 28°55' W 094°24'5 9.4
2018-Jun-25 05:15N 29°00' W 094°26'310.6
2018-Jun-25 05:00N 29°03' W 094°26'510.4
2018-Jun-25 04:30N 29°08' W 094°26'1011.9
2018-Jun-25 03:41N 29°15' W 094°34'211.7
2018-Jun-25 03:29N 29°16' W 094°36'511.1
2018-Jun-25 03:00N 29°20' W 094°40'612.6
2018-Jun-25 02:30N 29°21' W 094°47'612.6
2018-Jun-25 02:00N 29°27' W 094°51'611.9
2018-Jun-25 01:30N 29°32' W 094°54'611.2
2018-Jun-25 01:00N 29°37' W 094°57'510.1
2018-Jun-25 00:30N 29°42' W 094°59'4 7.3
2018-Jun-25 00:00N 29°44' W 095°03'3 5.5
2018-Jun-24 23:26N 29°45' W 095°06'2 0.0
2018-Jun-23 06:33N 29°44' W 095°08'0 0.0
2018-Jun-22 05:33N 29°44' W 095°08'0 0.1
2018-Jun-22 05:22N 29°44' W 095°08'0 0.9
2018-Jun-22 04:59N 29°44' W 095°08'2 4.9
2018-Jun-22 04:31N 29°45' W 095°06'3 6.8
2018-Jun-22 04:00N 29°44' W 095°02'4 8.4
2018-Jun-22 03:31N 29°41' W 094°59'5 9.8
2018-Jun-22 03:01N 29°36' W 094°57'611.8
2018-Jun-22 02:30N 29°31' W 094°53'611.4
2018-Jun-22 02:00N 29°26' W 094°50'511.0
2018-Jun-22 01:30N 29°21' W 094°47'3 5.4
2018-Jun-22 01:00N 29°21' W 094°44'0 0.0
2018-Jun-22 00:30N 29°21' W 094°44'0 0.0
2018-Jun-22 00:00N 29°21' W 094°44'0 0.0
2018-Jun-21 23:30N 29°21' W 094°44'0 0.1
2018-Jun-21 23:00N 29°21' W 094°44'0 0.0
2018-Jun-21 22:27N 29°21' W 094°44'0 0.0
2018-Jun-21 22:00N 29°21' W 094°44'0 0.2
2018-Jun-21 21:30N 29°21' W 094°44'0 0.3
2018-Jun-21 21:00N 29°21' W 094°44'0 0.1
2018-Jun-21 20:27N 29°21' W 094°44'0 0.1
2018-Jun-21 20:00N 29°21' W 094°44'0 0.0
2018-Jun-21 19:30N 29°21' W 094°44'0 0.0
2018-Jun-21 19:00N 29°21' W 094°44'0 0.0
2018-Jun-21 18:30N 29°21' W 094°44'0 0.0
2018-Jun-21 18:00N 29°21' W 094°44'0 0.0
2018-Jun-21 17:30N 29°21' W 094°44'0 0.0
2018-Jun-21 17:00N 29°21' W 094°44'0 0.1
2018-Jun-21 16:30N 29°21' W 094°44'0 0.1
2018-Jun-21 15:48N 29°21' W 094°44'0 0.0
2018-Jun-21 15:30N 29°21' W 094°44'0 0.0
2018-Jun-21 15:00N 29°21' W 094°44'0 0.2
2018-Jun-21 14:30N 29°21' W 094°44'0 0.1
2018-Jun-21 14:00N 29°21' W 094°44'0 0.0
2018-Jun-21 13:30N 29°21' W 094°44'0 0.0
2018-Jun-21 12:54N 29°21' W 094°44'0 0.0
2018-Jun-21 12:30N 29°21' W 094°44'0 0.0
2018-Jun-21 12:00N 29°21' W 094°44'0 0.0
2018-Jun-21 11:30N 29°21' W 094°44'0 0.1
2018-Jun-21 11:00N 29°21' W 094°44'0 0.0
2018-Jun-21 10:30N 29°21' W 094°44'0 0.0
2018-Jun-21 10:00N 29°21' W 094°44'0 0.0
2018-Jun-21 09:27N 29°21' W 094°44'0 0.0
2018-Jun-21 08:51N 29°21' W 094°44'0 0.2
2018-Jun-21 08:30N 29°21' W 094°44'0 0.1
2018-Jun-21 08:00N 29°21' W 094°44'0 0.1
2018-Jun-21 07:30N 29°21' W 094°44'0 0.0
2018-Jun-21 07:00N 29°21' W 094°44'0 0.0
2018-Jun-21 06:24N 29°21' W 094°44'0 0.0
2018-Jun-21 05:57N 29°21' W 094°44'0 0.0
2018-Jun-21 05:30N 29°21' W 094°44'0 0.0
2018-Jun-21 05:00N 29°21' W 094°44'0 0.0
2018-Jun-21 04:30N 29°21' W 094°44'0 0.1
2018-Jun-21 04:00N 29°21' W 094°44'2 3.6
2018-Jun-21 03:30N 29°21' W 094°42'611.9
2018-Jun-21 03:01N 29°18' W 094°36'611.8
2018-Jun-21 02:30N 29°14' W 094°31'1511.8
2018-Jun-21 01:13N 29°06' W 094°16'2318.7
2018-Jun-21 00:00N 28°54' W 093°54'34514.4 140 / 14 5.4 30.026.3
2018-Jun-20 00:00N 26°54' W 087°48'22212.3 270 / 12 10.8 30.626.9
2018-Jun-19 06:00N 25°06' W 084°12'22811.2 100 / 91012.710.8 27.223.3
2018-Jun-18 09:42N 25°26' W 080°01'312.9
2018-Jun-18 09:30N 25°29' W 080°01'612.8
2018-Jun-18 09:00N 25°35' W 080°01'612.6
2018-Jun-18 08:30N 25°41' W 080°01'612.4
2018-Jun-18 08:00N 25°48' W 080°01'612.2
2018-Jun-18 07:30N 25°54' W 080°01'611.9
2018-Jun-18 07:00N 25°60' W 080°01'611.6
2018-Jun-18 06:30N 26°05' W 080°00'611.5
2018-Jun-18 06:00N 26°11' W 079°60'7714.0
2018-Jun-18 06:00N 26°06' W 079°54'1223.9 090 / 51015.510.8 27.226.5
2018-Jun-18 05:30N 26°17' W 079°59'611.4
2018-Jun-18 05:00N 26°23' W 079°59'611.4
2018-Jun-18 04:30N 26°28' W 079°58'611.1
2018-Jun-18 03:58N 26°34' W 079°57'1211.0
2018-Jun-18 02:53N 26°46' W 079°56'411.1
2018-Jun-18 02:29N 26°50' W 079°56'511.0
2018-Jun-18 02:00N 26°56' W 079°56'510.8
2018-Jun-18 01:30N 27°01' W 079°55'510.5
2018-Jun-18 01:00N 27°06' W 079°55'158.5
2018-Jun-18 01:00N 27°06' W 079°54'   040 / 101015.210.8 30.024.0

Dump ship's entire track history